createdAt,value
2023-02-22T00:02:11.349Z,10.00
2023-02-22T00:04:42.675Z,10.94
2023-02-22T00:07:15.197Z,9.69
2023-02-22T00:09:46.128Z,8.52
2023-02-22T00:12:17.077Z,8.88
2023-02-22T00:14:47.816Z,9.99
2023-02-22T00:17:20.724Z,10.12
2023-02-22T00:19:51.516Z,9.24
2023-02-22T00:22:22.508Z,8.62
2023-02-22T00:24:53.289Z,9.37
2023-02-22T00:27:24.059Z,10.42
2023-02-22T00:29:56.904Z,9.66
2023-02-22T00:32:27.683Z,8.59
2023-02-22T00:34:58.989Z,8.83
2023-02-22T00:37:31.747Z,10.29
2023-02-22T00:40:02.432Z,10.02
2023-02-22T00:42:33.483Z,8.94
2023-02-22T00:45:04.721Z,8.64
2023-02-22T00:47:35.663Z,9.78
2023-02-22T00:50:08.105Z,10.68
2023-02-22T00:52:39.238Z,10.12
2023-02-22T00:55:11.320Z,9.11
2023-02-22T00:57:42.340Z,8.81
2023-02-22T01:00:17.482Z,9.73
2023-02-22T01:02:50.928Z,10.33
2023-02-22T01:05:21.398Z,9.39
2023-02-22T01:07:52.669Z,8.36
2023-02-22T01:10:25.241Z,8.58
2023-02-22T01:12:56.597Z,9.60
2023-02-22T01:15:29.283Z,10.66
2023-02-22T01:18:01.162Z,10.76
2023-02-22T01:20:32.825Z,10.11
2023-02-22T01:23:06.955Z,9.03
2023-02-22T01:25:38.338Z,8.50
2023-02-22T01:28:09.288Z,9.56
2023-02-22T01:30:40.223Z,10.21
2023-02-22T01:33:13.392Z,11.06
2023-02-22T01:35:43.106Z,9.83
2023-02-22T01:38:14.971Z,8.71
2023-02-22T01:40:48.669Z,9.01
2023-02-22T01:43:20.860Z,10.57
2023-02-22T01:45:59.969Z,10.16
2023-02-22T01:48:33.089Z,8.91
2023-02-22T01:51:11.137Z,9.45
2023-02-22T01:53:48.173Z,10.33
2023-02-22T01:56:20.249Z,9.27
2023-02-22T01:58:53.423Z,9.00
2023-02-22T02:01:25.344Z,10.08
2023-02-22T02:03:58.390Z,10.82
2023-02-22T02:06:32.245Z,10.71
2023-02-22T02:09:06.448Z,9.04
2023-02-22T02:11:40.646Z,8.30
2023-02-22T02:14:12.022Z,9.77
2023-02-22T02:16:43.968Z,10.53
2023-02-22T02:19:18.261Z,9.31
2023-02-22T02:22:01.080Z,8.67
2023-02-22T02:24:40.850Z,9.69
2023-02-22T02:27:15.191Z,10.77
2023-02-22T02:29:59.998Z,10.42
2023-02-22T02:32:35.553Z,9.05
2023-02-22T02:35:12.172Z,8.69
2023-02-22T02:37:49.542Z,10.43
2023-02-22T02:40:23.411Z,10.18
2023-02-22T02:42:56.782Z,8.71
2023-02-22T02:45:30.594Z,8.97
2023-02-22T02:48:03.644Z,9.89
2023-02-22T02:50:37.426Z,10.78
2023-02-22T02:53:09.924Z,9.56
2023-02-22T02:55:40.961Z,8.65
2023-02-22T02:58:17.836Z,9.64
2023-02-22T03:00:50.104Z,10.74
2023-02-22T03:03:41.726Z,10.48
2023-02-22T03:06:20.067Z,8.85
2023-02-22T03:08:57.050Z,8.95
2023-02-22T03:11:29.559Z,10.26
2023-02-22T03:14:04.032Z,10.57
2023-02-22T03:16:37.468Z,9.51
2023-02-22T03:19:10.617Z,8.74
2023-02-22T03:21:47.035Z,9.61
2023-02-22T03:24:22.226Z,10.57
2023-02-22T03:26:56.685Z,9.78
2023-02-22T03:29:29.824Z,8.64
2023-02-22T03:32:01.811Z,9.48
2023-02-22T03:34:37.059Z,10.72
2023-02-22T03:37:07.623Z,9.88
2023-02-22T03:39:39.026Z,8.79
2023-02-22T03:42:10.751Z,9.61
2023-02-22T03:44:42.769Z,10.79
2023-02-22T03:47:15.703Z,10.06
2023-02-22T03:49:49.627Z,8.94
2023-02-22T03:52:23.730Z,9.81
2023-02-22T03:54:53.864Z,10.68
2023-02-22T03:57:26.801Z,9.70
2023-02-22T04:00:08.061Z,8.80
2023-02-22T04:02:45.084Z,9.92
2023-02-22T04:05:19.427Z,10.76
2023-02-22T04:07:51.833Z,10.29
2023-02-22T04:10:23.959Z,9.04
2023-02-22T04:12:55.451Z,9.00
2023-02-22T04:15:27.292Z,9.95
2023-02-22T04:18:04.105Z,10.46
2023-02-22T04:20:35.311Z,10.97
2023-02-22T04:23:29.351Z,10.13
2023-02-22T04:26:01.683Z,8.83
2023-02-22T04:28:34.654Z,8.27
2023-02-22T04:31:19.556Z,9.38
2023-02-22T04:33:51.157Z,10.26
2023-02-22T04:36:25.237Z,10.97
2023-02-22T04:38:57.410Z,10.92
2023-02-22T04:41:28.484Z,9.65
2023-02-22T04:43:59.525Z,8.71
2023-02-22T04:46:31.713Z,9.16
2023-02-22T04:49:03.304Z,10.43
2023-02-22T04:51:37.113Z,9.81
2023-02-22T04:54:14.345Z,8.46
2023-02-22T04:56:48.200Z,8.78
2023-02-22T04:59:20.171Z,10.14
2023-02-22T05:01:57.156Z,10.25
2023-02-22T05:04:27.851Z,9.05
2023-02-22T05:06:58.812Z,8.23
2023-02-22T05:09:29.650Z,8.91
2023-02-22T05:12:00.592Z,9.95
2023-02-22T05:14:31.472Z,10.66
2023-02-22T05:17:03.244Z,11.08
2023-02-22T05:19:34.166Z,11.26
2023-02-22T05:22:06.031Z,10.52
2023-02-22T05:24:36.883Z,9.07
2023-02-22T05:27:07.755Z,8.68
2023-02-22T05:29:39.528Z,9.98
2023-02-22T05:32:10.270Z,10.19
2023-02-22T05:34:41.485Z,8.85
2023-02-22T05:37:12.140Z,8.08
2023-02-22T05:39:43.431Z,9.14
2023-02-22T05:42:14.054Z,10.42
2023-02-22T05:44:44.671Z,10.05
2023-02-22T05:47:15.360Z,8.93
2023-02-22T05:49:46.400Z,9.45
2023-02-22T05:52:17.045Z,10.21
2023-02-22T05:54:47.879Z,10.47
2023-02-22T05:57:18.907Z,9.39
2023-02-22T05:59:49.845Z,8.67
2023-02-22T06:02:20.605Z,9.57
2023-02-22T06:04:51.817Z,10.16
2023-02-22T06:07:22.889Z,10.87
2023-02-22T06:09:53.866Z,10.69
2023-02-22T06:12:25.469Z,9.49
2023-02-22T06:14:56.300Z,8.61
2023-02-22T06:17:27.027Z,9.27
2023-02-22T06:19:58.907Z,10.32
2023-02-22T06:22:30.435Z,10.99
2023-02-22T06:25:01.415Z,11.60
2023-02-22T06:27:33.982Z,10.93
2023-02-22T06:30:05.328Z,9.49
2023-02-22T06:32:36.745Z,8.61
2023-02-22T06:35:08.117Z,8.29
2023-02-22T06:37:40.793Z,9.61
2023-02-22T06:40:12.722Z,10.83
2023-02-22T06:42:43.579Z,10.15
2023-02-22T06:45:14.545Z,8.98
2023-02-22T06:47:45.443Z,8.46
2023-02-22T06:50:21.552Z,9.59
2023-02-22T06:52:53.721Z,10.62
2023-02-22T06:55:25.991Z,10.92
2023-02-22T06:57:56.879Z,9.88
2023-02-22T07:00:30.210Z,8.96
2023-02-22T07:03:01.647Z,9.63
2023-02-22T07:05:32.455Z,10.35
2023-02-22T07:08:08.211Z,11.14
2023-02-22T07:10:39.554Z,10.35
2023-02-22T07:13:10.539Z,9.14
2023-02-22T07:15:42.301Z,8.75
2023-02-22T07:18:14.210Z,9.95
2023-02-22T07:20:45.152Z,10.84
2023-02-22T07:23:17.077Z,11.39
2023-02-22T07:25:48.052Z,10.49
2023-02-22T07:28:18.994Z,9.53
2023-02-22T07:30:50.240Z,8.87
2023-02-22T07:33:20.999Z,9.71
2023-02-22T07:35:52.479Z,10.62
2023-02-22T07:38:23.456Z,9.91
2023-02-22T07:40:54.701Z,9.04
2023-02-22T07:43:26.663Z,8.42
2023-02-22T07:45:58.150Z,9.14
2023-02-22T07:48:29.974Z,10.39
2023-02-22T07:51:00.820Z,10.59
2023-02-22T07:53:34.026Z,9.70
2023-02-22T07:56:06.691Z,9.03
2023-02-22T07:58:37.467Z,8.50
2023-02-22T08:01:08.883Z,8.53
2023-02-22T08:03:40.094Z,9.78
2023-02-22T08:06:10.936Z,10.77
2023-02-22T08:08:42.925Z,9.94
2023-02-22T08:11:14.345Z,9.18
2023-02-22T08:13:45.568Z,8.64
2023-02-22T08:16:16.298Z,9.04
2023-02-22T08:18:47.371Z,10.41
2023-02-22T08:21:19.530Z,11.06
2023-02-22T08:23:54.632Z,10.44
2023-02-22T08:26:25.831Z,9.62
2023-02-22T08:28:57.382Z,8.98
2023-02-22T08:31:28.799Z,8.58
2023-02-22T08:34:01.194Z,8.36
2023-02-22T08:36:33.112Z,8.59
2023-02-22T08:39:04.175Z,10.16
2023-02-22T08:41:35.183Z,10.41
2023-02-22T08:44:05.973Z,9.88
2023-02-22T08:46:36.661Z,9.37
2023-02-22T08:49:09.163Z,8.84
2023-02-22T08:51:40.107Z,9.16
2023-02-22T08:54:11.261Z,10.42
2023-02-22T08:56:42.235Z,11.24
2023-02-22T08:59:12.997Z,10.48
2023-02-22T09:01:44.080Z,9.68
2023-02-22T09:04:14.854Z,9.13
2023-02-22T09:06:48.620Z,8.67
2023-02-22T09:09:21.440Z,8.74
2023-02-22T09:11:53.264Z,9.88
2023-02-22T09:14:24.465Z,9.58
2023-02-22T09:16:57.534Z,9.08
2023-02-22T09:19:26.875Z,8.68
2023-02-22T09:21:58.643Z,8.36
2023-02-22T09:24:29.825Z,8.10
2023-02-22T09:27:01.288Z,7.94
2023-02-22T09:29:32.425Z,7.85
2023-02-22T09:32:04.794Z,7.74
2023-02-22T09:34:35.880Z,7.67
2023-02-22T09:37:09.136Z,7.65
2023-02-22T09:39:40.190Z,7.64
2023-02-22T09:42:14.346Z,7.55
2023-02-22T09:44:49.383Z,7.53
2023-02-22T09:47:21.852Z,7.59
2023-02-22T09:49:58.305Z,7.69
2023-02-22T09:52:31.891Z,7.72
2023-02-22T09:55:08.734Z,7.83
2023-02-22T09:57:42.011Z,7.93
2023-02-22T10:00:18.455Z,7.96
2023-02-22T10:02:53.222Z,8.03
2023-02-22T10:05:27.898Z,8.17
2023-02-22T10:08:01.284Z,8.25
2023-02-22T10:10:33.868Z,8.21
2023-02-22T10:13:07.515Z,8.10
2023-02-22T10:15:54.427Z,8.06
2023-02-22T10:18:34.385Z,8.15
2023-02-22T10:21:09.064Z,8.23
2023-02-22T10:23:45.495Z,8.26
2023-02-22T10:26:18.021Z,8.35
2023-02-22T10:28:53.661Z,8.46
2023-02-22T10:31:26.885Z,8.59
2023-02-22T10:34:00.380Z,8.59
2023-02-22T10:36:31.188Z,8.55
2023-02-22T10:39:03.697Z,8.45
2023-02-22T10:41:35.652Z,8.38
2023-02-22T10:44:06.753Z,8.39
2023-02-22T10:46:38.075Z,8.43
2023-02-22T10:49:09.463Z,8.41
2023-02-22T10:51:40.734Z,8.33
2023-02-22T10:54:21.357Z,8.33
2023-02-22T10:56:55.275Z,8.37
2023-02-22T10:59:29.186Z,8.39
2023-02-22T11:02:00.430Z,8.32
2023-02-22T11:04:46.164Z,8.18
2023-02-22T11:07:22.312Z,8.10
2023-02-22T11:09:54.439Z,8.06
2023-02-22T11:12:29.873Z,8.00
2023-02-22T11:15:22.419Z,7.98
2023-02-22T11:17:55.693Z,8.02
2023-02-22T11:20:27.620Z,8.00
2023-02-22T11:23:01.321Z,7.95
2023-02-22T11:25:30.378Z,7.92
2023-02-22T11:28:08.094Z,7.94
2023-02-22T11:30:39.177Z,8.00
2023-02-22T11:33:17.972Z,8.07
2023-02-22T11:35:52.927Z,8.12
2023-02-22T11:38:24.719Z,8.14
2023-02-22T11:41:08.322Z,8.15
2023-02-22T11:43:37.292Z,8.17
2023-02-22T11:46:11.193Z,8.24
2023-02-22T11:48:45.068Z,8.34
2023-02-22T11:51:18.189Z,8.43
2023-02-22T11:53:55.355Z,8.49
2023-02-22T11:56:37.243Z,8.59
2023-02-22T11:59:14.460Z,8.71
2023-02-22T12:01:48.998Z,8.80
2023-02-22T12:04:30.126Z,8.78
2023-02-22T12:07:08.661Z,8.78
2023-02-22T12:09:42.740Z,8.82
2023-02-22T12:12:19.412Z,8.87
2023-02-22T12:14:55.941Z,8.95
2023-02-22T12:17:33.378Z,9.04
2023-02-22T12:20:10.448Z,9.15
2023-02-22T12:22:55.584Z,9.11
2023-02-22T12:25:29.615Z,9.00
2023-02-22T12:28:10.078Z,8.97
2023-02-22T12:30:48.674Z,8.98
2023-02-22T12:33:21.667Z,9.02
2023-02-22T12:35:55.000Z,9.07
2023-02-22T12:38:31.620Z,9.16
2023-02-22T12:41:07.779Z,9.29
2023-02-22T12:43:42.548Z,9.42
2023-02-22T12:46:16.345Z,9.50
2023-02-22T12:48:49.761Z,9.60
2023-02-22T12:51:25.382Z,9.73
2023-02-22T12:53:58.301Z,9.84
2023-02-22T12:56:33.929Z,9.74
2023-02-22T12:59:10.661Z,9.58
2023-02-22T13:01:42.673Z,9.28
2023-02-22T13:04:21.101Z,9.02
2023-02-22T13:07:03.055Z,8.84
2023-02-22T13:09:43.604Z,8.82
2023-02-22T13:12:18.689Z,8.96
2023-02-22T13:14:59.993Z,9.12
2023-02-22T13:17:35.946Z,9.21
2023-02-22T13:20:13.540Z,9.20
2023-02-22T13:22:46.567Z,9.11
2023-02-22T13:25:21.918Z,8.95
2023-02-22T13:27:56.194Z,8.79
2023-02-22T13:30:25.296Z,8.74
2023-02-22T13:33:14.649Z,8.79
2023-02-22T13:35:50.888Z,9.01
2023-02-22T13:38:30.952Z,9.29
2023-02-22T13:41:19.036Z,9.43
2023-02-22T13:44:04.346Z,9.51
2023-02-22T13:46:42.974Z,9.53
2023-02-22T13:49:30.285Z,9.67
2023-02-22T13:52:03.069Z,9.70
2023-02-22T13:54:38.406Z,9.58
2023-02-22T13:57:21.594Z,9.40
2023-02-22T14:00:12.638Z,9.18
2023-02-22T14:03:01.211Z,9.06
2023-02-22T14:05:50.188Z,9.02
2023-02-22T14:08:41.914Z,9.00
2023-02-22T14:11:30.646Z,9.01
2023-02-22T14:14:14.901Z,9.02
2023-02-22T14:16:46.285Z,8.96
2023-02-22T14:19:18.225Z,8.90
2023-02-22T14:22:02.614Z,8.79
2023-02-22T14:24:43.550Z,8.66
2023-02-22T14:27:15.281Z,8.60
2023-02-22T14:29:53.932Z,8.57
2023-02-22T14:32:31.950Z,8.57
2023-02-22T14:35:25.449Z,8.55
2023-02-22T14:38:07.608Z,8.51
2023-02-22T14:40:39.136Z,8.53
2023-02-22T14:43:12.519Z,8.43
2023-02-22T14:45:47.355Z,8.36
2023-02-22T14:48:24.058Z,8.33
2023-02-22T14:50:58.076Z,8.29
2023-02-22T14:53:34.694Z,8.27
2023-02-22T14:56:08.655Z,8.26
2023-02-22T14:58:41.702Z,8.24
2023-02-22T15:01:40.150Z,8.22
2023-02-22T15:04:31.797Z,8.19
2023-02-22T15:07:22.258Z,8.17
2023-02-22T15:09:56.519Z,8.13
2023-02-22T15:12:29.970Z,8.07
2023-02-22T15:15:14.974Z,8.00
2023-02-22T15:17:47.458Z,7.95
2023-02-22T15:20:21.247Z,7.92
2023-02-22T15:22:53.215Z,7.85
2023-02-22T15:25:27.410Z,7.79
2023-02-22T15:28:01.556Z,7.74
2023-02-22T15:30:34.584Z,7.69
2023-02-22T15:33:24.360Z,7.64
2023-02-22T15:35:58.658Z,7.59
2023-02-22T15:38:30.794Z,7.55
2023-02-22T15:41:03.803Z,7.53
2023-02-22T15:43:34.814Z,7.50
2023-02-22T15:46:12.967Z,7.49
2023-02-22T15:48:44.063Z,7.45
2023-02-22T15:51:17.673Z,7.44
2023-02-22T15:53:49.649Z,7.42
2023-02-22T15:56:26.969Z,7.39
2023-02-22T15:59:03.906Z,7.35
2023-02-22T16:01:40.712Z,7.32
2023-02-22T16:04:19.554Z,7.29
2023-02-22T16:06:55.208Z,7.27
2023-02-22T16:09:37.517Z,7.25
2023-02-22T16:12:12.721Z,7.21
2023-02-22T16:14:45.158Z,7.18
2023-02-22T16:17:35.063Z,7.15
2023-02-22T16:20:19.591Z,7.11
2023-02-22T16:22:50.703Z,7.07
2023-02-22T16:25:29.464Z,7.03
2023-02-22T16:28:06.462Z,7.00
2023-02-22T16:30:42.426Z,6.97
2023-02-22T16:33:18.507Z,6.94
2023-02-22T16:35:53.181Z,6.92
2023-02-22T16:38:24.267Z,6.89
2023-02-22T16:40:56.337Z,6.85
2023-02-22T16:43:29.787Z,6.83
2023-02-22T16:46:02.572Z,6.81
2023-02-22T16:48:34.225Z,6.79
2023-02-22T16:51:08.701Z,6.77
2023-02-22T16:53:39.369Z,6.75
2023-02-22T16:56:13.088Z,6.73
2023-02-22T16:58:44.852Z,6.71
2023-02-22T17:01:16.730Z,6.71
2023-02-22T17:03:48.075Z,6.70
2023-02-22T17:06:19.581Z,6.69
2023-02-22T17:08:52.136Z,6.69
2023-02-22T17:11:32.326Z,6.67
2023-02-22T17:14:03.561Z,6.65
2023-02-22T17:16:38.188Z,6.65
2023-02-22T17:19:11.270Z,6.63
2023-02-22T17:21:41.792Z,6.61
2023-02-22T17:24:14.177Z,6.57
2023-02-22T17:26:44.999Z,6.54
2023-02-22T17:29:18.082Z,6.52
2023-02-22T17:31:49.288Z,6.49
2023-02-22T17:34:20.612Z,6.46
2023-02-22T17:36:51.320Z,6.44
2023-02-22T17:39:27.777Z,6.41
2023-02-22T17:41:58.325Z,6.38
2023-02-22T17:44:34.851Z,6.36
2023-02-22T17:47:05.546Z,6.31
2023-02-22T17:49:36.649Z,6.27
2023-02-22T17:52:07.677Z,6.25
2023-02-22T17:54:39.459Z,6.22
2023-02-22T17:57:10.120Z,6.18
2023-02-22T17:59:46.449Z,6.16
2023-02-22T18:02:17.561Z,6.12
2023-02-22T18:04:49.396Z,6.07
2023-02-22T18:07:20.252Z,6.03
2023-02-22T18:09:56.148Z,5.99
2023-02-22T18:12:35.437Z,5.95
2023-02-22T18:15:13.291Z,5.92
2023-02-22T18:17:44.826Z,5.89
2023-02-22T18:20:16.645Z,5.86
2023-02-22T18:22:47.316Z,5.84
2023-02-22T18:25:18.683Z,5.82
2023-02-22T18:27:53.454Z,5.80
2023-02-22T18:30:24.866Z,5.79
2023-02-22T18:32:56.207Z,5.77
2023-02-22T18:35:27.655Z,5.74
2023-02-22T18:37:58.362Z,5.71
2023-02-22T18:40:34.845Z,5.67
2023-02-22T18:43:05.894Z,5.63
2023-02-22T18:45:41.636Z,5.59
2023-02-22T18:48:12.475Z,5.55
2023-02-22T18:50:43.454Z,5.51
2023-02-22T18:53:14.296Z,5.46
2023-02-22T18:55:45.177Z,5.41
2023-02-22T18:58:20.324Z,5.55
2023-02-22T19:00:57.204Z,7.00
2023-02-22T19:03:33.312Z,8.58
2023-02-22T19:06:10.092Z,9.68
2023-02-22T19:08:46.292Z,10.08
2023-02-22T19:11:19.562Z,9.22
2023-02-22T19:13:51.865Z,8.32
2023-02-22T19:16:23.784Z,7.69
2023-02-22T19:18:57.653Z,7.22
2023-02-22T19:21:29.306Z,6.85
2023-02-22T19:24:14.070Z,6.51
2023-02-22T19:26:51.100Z,6.24
2023-02-22T19:29:23.853Z,5.98
2023-02-22T19:31:55.230Z,5.77
2023-02-22T19:34:31.471Z,5.59
2023-02-22T19:37:07.680Z,5.43
2023-02-22T19:39:39.077Z,5.28
2023-02-22T19:42:11.112Z,5.43
2023-02-22T19:44:41.825Z,6.87
2023-02-22T19:47:13.176Z,8.27
2023-02-22T19:49:43.923Z,8.98
2023-02-22T19:52:15.453Z,8.26
2023-02-22T19:54:46.203Z,7.38
2023-02-22T19:57:17.583Z,6.77
2023-02-22T19:59:49.254Z,6.32
2023-02-22T20:02:23.395Z,5.97
2023-02-22T20:04:55.376Z,5.69
2023-02-22T20:07:26.806Z,5.44
2023-02-22T20:09:57.408Z,5.47
2023-02-22T20:12:28.380Z,6.80
2023-02-22T20:15:00.348Z,8.15
2023-02-22T20:17:31.308Z,9.06
2023-02-22T20:20:02.426Z,9.52
2023-02-22T20:22:33.773Z,8.69
2023-02-22T20:25:04.812Z,7.72
2023-02-22T20:27:36.625Z,7.01
2023-02-22T20:30:10.060Z,6.49
2023-02-22T20:32:43.059Z,6.07
2023-02-22T20:35:14.503Z,5.72
2023-02-22T20:37:46.058Z,5.40
2023-02-22T20:40:16.992Z,5.14
2023-02-22T20:42:48.444Z,5.45
2023-02-22T20:45:20.108Z,6.68
2023-02-22T20:47:51.487Z,7.66
2023-02-22T20:50:22.501Z,7.16
2023-02-22T20:52:57.970Z,6.23
2023-02-22T20:55:33.269Z,5.97
2023-02-22T20:58:08.389Z,7.00
2023-02-22T21:00:39.245Z,7.68
2023-02-22T21:03:10.293Z,7.84
2023-02-22T21:05:44.441Z,6.85
2023-02-22T21:08:16.158Z,6.31
2023-02-22T21:10:48.169Z,7.17
2023-02-22T21:13:19.412Z,8.08
2023-02-22T21:15:53.178Z,7.89
2023-02-22T21:18:25.150Z,6.86
2023-02-22T21:20:56.170Z,6.23
2023-02-22T21:23:27.428Z,6.82
2023-02-22T21:25:58.380Z,7.58
2023-02-22T21:28:42.520Z,7.89
2023-02-22T21:31:21.576Z,6.90
2023-02-22T21:33:53.506Z,5.96
2023-02-22T21:36:25.798Z,6.36
2023-02-22T21:38:57.547Z,7.25
2023-02-22T21:41:29.557Z,7.59
2023-02-22T21:44:00.625Z,6.88
2023-02-22T21:46:31.975Z,5.87
2023-02-22T21:49:02.976Z,5.31
2023-02-22T21:51:34.600Z,6.11
2023-02-22T21:54:06.591Z,7.35
2023-02-22T21:56:38.598Z,7.73
2023-02-22T21:59:12.096Z,6.80
2023-02-22T22:01:47.330Z,5.82
2023-02-22T22:04:20.221Z,5.33
2023-02-22T22:06:53.297Z,6.44
2023-02-22T22:09:24.744Z,7.36
2023-02-22T22:11:58.675Z,7.27
2023-02-22T22:14:29.494Z,6.27
2023-02-22T22:17:01.303Z,5.40
2023-02-22T22:19:33.814Z,5.81
2023-02-22T22:22:04.959Z,6.81
2023-02-22T22:24:35.529Z,7.85
2023-02-22T22:27:10.213Z,7.71
2023-02-22T22:29:40.950Z,6.60
2023-02-22T22:32:12.172Z,5.56
2023-02-22T22:34:43.818Z,5.08
2023-02-22T22:37:16.329Z,5.97
2023-02-22T22:39:47.052Z,6.92
2023-02-22T22:42:19.021Z,7.34
2023-02-22T22:44:50.514Z,6.49
2023-02-22T22:47:22.234Z,5.44
2023-02-22T22:49:53.273Z,5.08
2023-02-22T22:52:24.616Z,5.91
2023-02-22T22:54:55.339Z,6.89
2023-02-22T22:57:26.650Z,7.04
2023-02-22T22:59:57.317Z,5.99
2023-02-22T23:02:29.933Z,5.09
2023-02-22T23:05:01.043Z,5.76
2023-02-22T23:07:32.186Z,6.74
2023-02-22T23:10:03.104Z,7.19
2023-02-22T23:12:35.184Z,6.18
2023-02-22T23:15:06.957Z,5.10
2023-02-22T23:17:42.644Z,5.36
2023-02-22T23:20:14.212Z,6.10
2023-02-22T23:22:47.652Z,6.76
2023-02-22T23:25:20.035Z,6.48
2023-02-22T23:27:51.613Z,5.36
2023-02-22T23:30:22.417Z,4.77
2023-02-22T23:32:54.775Z,5.69
2023-02-22T23:35:27.090Z,6.53
2023-02-22T23:37:59.410Z,6.42
2023-02-22T23:40:30.190Z,5.27
2023-02-22T23:43:04.360Z,4.86
2023-02-22T23:45:38.806Z,5.92
2023-02-22T23:48:09.923Z,6.48
2023-02-22T23:50:40.513Z,6.02
2023-02-22T23:53:15.343Z,5.04
2023-02-22T23:55:46.018Z,4.29
2023-02-22T23:58:17.156Z,4.56
